Time;durP1;ratioP1;P1;durP2;ratioP2;P2;SDS_P1;SDS_P2;PMS_P1;PMS_P2;Temp;Humidity;BMP_temperature;BMP_pressure;BME280_temperature;BME280_humidity;BME280_pressure;Samples;Min_cycle;Max_cycle;Signal;HPM_P1;HPM_P2
2022/06/12 00:01:25;;;;;;;7.10;6.50;;;16.90;99.90;;;;;;4926859;28;20449;-85
2022/06/12 00:03:51;;;;;;;7.63;6.33;;;16.80;99.90;;;;;;4932040;28;20186;-85
2022/06/12 00:06:19;;;;;;;6.87;6.27;;;16.80;99.90;;;;;;4944278;28;20457;-86
2022/06/12 00:08:45;;;;;;;7.60;6.90;;;16.80;99.90;;;;;;4935168;28;20862;-85
2022/06/12 00:11:13;;;;;;;7.37;6.70;;;16.70;99.90;;;;;;4953293;28;20469;-86
2022/06/12 00:13:51;;;;;;;7.57;6.90;;;16.70;99.90;;;;;;4926795;28;20564;-85
2022/06/12 00:16:18;;;;;;;6.40;6.00;;;16.70;99.90;;;;;;4924574;28;20954;-85
2022/06/12 00:18:44;;;;;;;7.77;6.60;;;16.70;99.90;;;;;;4945350;28;21162;-85
2022/06/12 00:21:11;;;;;;;7.30;5.97;;;16.60;99.90;;;;;;4928719;28;20446;-85
2022/06/12 00:23:50;;;;;;;7.30;6.70;;;16.60;99.90;;;;;;4925636;28;20311;-85
2022/06/12 00:26:34;;;;;;;7.63;6.97;;;16.60;99.90;;;;;;4927590;28;20469;-85
2022/06/12 00:29:14;;;;;;;7.43;6.83;;;16.60;99.90;;;;;;4927621;28;20736;-85
2022/06/12 00:31:44;;;;;;;7.50;6.80;;;16.60;99.90;;;;;;4924142;28;20969;-85
2022/06/12 00:34:11;;;;;;;6.90;6.40;;;16.40;99.90;;;;;;4952952;28;20445;-85
2022/06/12 00:36:38;;;;;;;6.93;6.43;;;16.40;99.90;;;;;;4929327;28;20449;-85
2022/06/12 00:39:05;;;;;;;6.83;6.23;;;16.40;99.90;;;;;;4932993;28;20445;-85
2022/06/12 00:41:31;;;;;;;6.83;6.40;;;16.30;99.90;;;;;;4931961;28;20798;-86
2022/06/12 00:43:56;;;;;;;6.60;6.03;;;16.30;99.90;;;;;;4934934;28;20454;-86
2022/06/12 00:46:55;;;;;;;7.00;6.40;;;16.30;99.90;;;;;;4932047;28;21198;-86
2022/06/12 00:49:42;;;;;;;8.70;6.93;;;16.30;99.90;;;;;;4929567;28;20717;-85
2022/06/12 00:52:33;;;;;;;7.37;6.77;;;16.20;99.90;;;;;;4929787;28;21686;-85
2022/06/12 00:55:11;;;;;;;7.43;6.73;;;16.20;99.90;;;;;;4933856;28;21246;-85
2022/06/12 00:57:37;;;;;;;8.30;6.30;;;15.90;99.90;;;;;;4953064;28;20854;-85
2022/06/12 01:00:12;;;;;;;9.53;6.50;;;16.00;99.90;;;;;;4938921;28;20441;-85
2022/06/12 01:02:39;;;;;;;7.13;6.53;;;16.00;99.90;;;;;;4953685;28;20186;-85
2022/06/12 01:07:57;;;;;;;7.30;6.70;;;16.10;99.90;;;;;;4930800;28;20467;-85
2022/06/12 01:10:28;;;;;;;7.20;6.60;;;16.10;99.90;;;;;;4926923;28;20753;-85
2022/06/12 01:13:13;;;;;;;8.00;7.30;;;16.20;99.90;;;;;;4934193;28;20479;-85
2022/06/12 01:15:50;;;;;;;8.63;7.60;;;16.30;99.90;;;;;;4926519;28;23307;-85
2022/06/12 01:18:20;;;;;;;8.73;7.93;;;16.30;99.90;;;;;;4930871;28;20975;-85
2022/06/12 01:21:01;;;;;;;8.27;7.57;;;16.40;99.90;;;;;;4935592;28;20556;-84
2022/06/12 01:23:53;;;;;;;8.30;7.60;;;16.40;99.90;;;;;;4927963;28;20450;-84
2022/06/12 01:26:40;;;;;;;7.77;7.17;;;16.20;99.90;;;;;;4932193;28;20933;-85
2022/06/12 01:29:22;;;;;;;8.07;7.27;;;16.10;99.90;;;;;;4936926;28;20968;-85
2022/06/12 01:31:59;;;;;;;8.60;7.90;;;16.10;99.90;;;;;;4933765;28;20533;-85
2022/06/12 01:34:45;;;;;;;9.53;8.70;;;16.10;99.90;;;;;;4925100;28;20516;-85
2022/06/12 01:37:34;;;;;;;9.50;7.73;;;16.00;99.90;;;;;;4946329;28;20449;-85
2022/06/12 01:40:16;;;;;;;9.00;7.90;;;16.00;99.90;;;;;;4927171;28;20739;-85
2022/06/12 01:42:57;;;;;;;8.40;7.70;;;16.10;99.90;;;;;;4925431;28;20476;-85
2022/06/12 01:45:50;;;;;;;8.30;7.60;;;16.10;99.90;;;;;;4927622;28;21200;-85
2022/06/12 01:48:35;;;;;;;8.37;7.67;;;16.20;99.90;;;;;;4944403;28;21054;-85
2022/06/12 01:51:21;;;;;;;8.53;7.80;;;16.20;99.90;;;;;;4944115;28;20509;-84
2022/06/12 01:53:59;;;;;;;8.93;8.03;;;16.10;99.90;;;;;;4947417;28;22663;-85
2022/06/12 01:56:34;;;;;;;9.07;8.27;;;16.00;99.90;;;;;;4935946;28;20457;-85
2022/06/12 01:59:20;;;;;;;8.60;7.80;;;15.80;99.90;;;;;;4940706;28;20449;-85
2022/06/12 02:01:55;;;;;;;8.87;7.97;;;15.80;99.90;;;;;;4938997;28;20477;-85
2022/06/12 02:04:42;;;;;;;9.17;8.37;;;15.70;99.90;;;;;;4937619;28;20473;-86
2022/06/12 02:07:12;;;;;;;9.07;8.17;;;15.70;99.90;;;;;;4941366;28;20525;-84
2022/06/12 02:09:45;;;;;;;9.27;8.47;;;15.70;99.90;;;;;;4953249;28;20510;-84
2022/06/12 02:15:08;;;;;;;10.47;9.63;;;15.70;99.90;;;;;;4937393;28;20548;-84
2022/06/12 02:17:44;;;;;;;9.13;8.43;;;15.60;99.90;;;;;;4952556;28;20504;-84
2022/06/12 02:20:13;;;;;;;10.33;9.33;;;15.60;99.90;;;;;;4931809;28;20483;-84
2022/06/12 02:22:43;;;;;;;9.80;8.90;;;15.60;99.90;;;;;;4942303;28;20453;-84
2022/06/12 02:25:19;;;;;;;8.47;7.80;;;15.50;99.90;;;;;;4948639;28;20524;-85
2022/06/12 02:27:51;;;;;;;8.93;8.13;;;15.50;99.90;;;;;;4937876;28;20537;-84
2022/06/12 02:30:29;;;;;;;9.10;8.30;;;15.50;99.90;;;;;;4951085;28;20963;-84
2022/06/12 02:33:00;;;;;;;10.30;9.40;;;15.50;99.90;;;;;;4940551;28;20445;-85
2022/06/12 02:35:39;;;;;;;8.87;8.13;;;15.40;99.90;;;;;;4932951;28;20449;-84
2022/06/12 02:38:13;;;;;;;10.23;9.17;;;15.50;99.90;;;;;;4937583;28;20577;-85
2022/06/12 02:40:43;;;;;;;8.83;8.10;;;15.50;99.90;;;;;;4932188;28;20446;-84
2022/06/12 02:43:15;;;;;;;9.50;8.60;;;15.50;99.90;;;;;;4936317;28;20438;-84
2022/06/12 02:45:50;;;;;;;9.43;8.70;;;15.50;99.90;;;;;;4952498;28;20485;-85
2022/06/12 02:48:17;;;;;;;9.33;8.43;;;15.40;99.90;;;;;;4938210;28;20457;-84
2022/06/12 02:51:18;;;;;;;10.80;8.97;;;15.30;99.90;;;;;;4932858;28;20437;-84
2022/06/12 02:53:58;;;;;;;10.67;9.50;;;15.20;99.90;;;;;;4937419;28;20445;-85
2022/06/12 02:56:52;;;;;;;8.83;8.13;;;15.20;99.90;;;;;;4937523;28;20449;-84
2022/06/12 02:59:46;;;;;;;9.07;8.13;;;15.20;99.90;;;;;;4934111;28;20871;-84
2022/06/12 03:02:19;;;;;;;8.50;7.77;;;15.10;99.90;;;;;;4948962;28;20512;-84
2022/06/12 03:04:57;;;;;;;9.73;8.93;;;15.10;99.90;;;;;;4961363;28;20470;-84
2022/06/12 03:07:23;;;;;;;9.33;8.60;;;15.10;99.90;;;;;;4954154;28;20453;-85
2022/06/12 03:09:49;;;;;;;10.03;9.23;;;15.10;99.90;;;;;;4943302;28;20444;-85
2022/06/12 03:12:15;;;;;;;9.37;8.60;;;15.00;99.90;;;;;;4933526;28;20682;-84
2022/06/12 03:14:40;;;;;;;10.40;9.37;;;15.00;99.90;;;;;;4938215;28;20214;-84
2022/06/12 03:17:06;;;;;;;10.07;9.27;;;14.90;99.90;;;;;;4939999;28;20190;-84
2022/06/12 03:19:42;;;;;;;9.77;8.87;;;14.90;99.90;;;;;;4952000;28;20458;-84
2022/06/12 03:22:29;;;;;;;10.77;9.80;;;14.90;99.90;;;;;;4933629;28;20186;-84
2022/06/12 03:25:19;;;;;;;9.40;8.50;;;14.90;99.90;;;;;;4945737;28;20465;-84
2022/06/12 03:28:05;;;;;;;8.90;8.20;;;14.90;99.90;;;;;;4961934;28;20446;-84
2022/06/12 03:30:44;;;;;;;9.40;8.60;;;14.90;99.90;;;;;;4966112;28;20445;-84
2022/06/12 03:33:15;;;;;;;10.00;8.53;;;14.80;99.90;;;;;;4941307;28;20564;-84
2022/06/12 03:36:05;;;;;;;9.47;8.67;;;14.90;99.90;;;;;;4947389;28;20453;-84
2022/06/12 03:38:34;;;;;;;9.70;8.90;;;14.90;99.90;;;;;;4947367;28;20453;-84
2022/06/12 03:41:27;;;;;;;10.80;9.43;;;14.90;99.90;;;;;;4940051;28;20630;-84
2022/06/12 03:43:59;;;;;;;8.73;7.93;;;14.80;99.90;;;;;;4951349;28;20480;-84
2022/06/12 03:46:48;;;;;;;11.90;9.90;;;14.80;99.90;;;;;;4945507;28;21963;-83
2022/06/12 03:49:24;;;;;;;8.90;8.10;;;14.80;99.90;;;;;;4934476;28;20609;-84
2022/06/12 03:51:55;;;;;;;9.17;8.30;;;14.80;99.90;;;;;;4949828;28;20449;-84
2022/06/12 03:54:28;;;;;;;10.97;9.60;;;14.80;99.90;;;;;;4933119;28;20468;-83
2022/06/12 04:00:18;;;;;;;9.33;8.53;;;14.90;99.90;;;;;;4932560;28;20448;-84
2022/06/12 04:02:53;;;;;;;9.77;8.97;;;14.90;99.90;;;;;;4935626;28;20506;-85
2022/06/12 04:05:25;;;;;;;9.90;9.03;;;14.90;99.90;;;;;;4927471;28;21777;-84
2022/06/12 04:07:55;;;;;;;10.07;9.20;;;14.90;99.90;;;;;;4948302;28;20502;-84
2022/06/12 04:10:25;;;;;;;9.67;8.90;;;14.90;99.90;;;;;;4961378;28;20460;-84
2022/06/12 04:12:52;;;;;;;9.03;8.23;;;14.90;99.90;;;;;;4943656;28;20812;-84
2022/06/12 04:15:31;;;;;;;10.17;9.37;;;15.00;99.90;;;;;;4939370;28;20506;-84
2022/06/12 04:17:57;;;;;;;9.77;8.20;;;14.90;99.90;;;;;;4941032;28;20438;-84
2022/06/12 04:20:35;;;;;;;9.73;8.83;;;15.00;99.90;;;;;;4951694;28;20453;-83
2022/06/12 04:23:10;;;;;;;10.00;9.10;;;15.00;99.90;;;;;;4942349;28;20975;-84
2022/06/12 04:25:42;;;;;;;8.67;7.80;;;15.00;99.90;;;;;;4943142;28;20515;-84
2022/06/12 04:28:25;;;;;;;10.00;9.00;;;15.00;99.90;;;;;;4954496;28;20473;-85
2022/06/12 04:30:54;;;;;;;10.47;9.53;;;15.00;99.90;;;;;;4940281;28;21199;-84
2022/06/12 04:33:26;;;;;;;10.00;8.90;;;15.00;99.90;;;;;;4941547;28;20967;-84
2022/06/12 04:35:56;;;;;;;9.40;8.53;;;15.00;99.90;;;;;;4955212;28;20584;-84
2022/06/12 04:38:22;;;;;;;8.97;8.27;;;15.10;99.90;;;;;;4934190;28;20452;-84
2022/06/12 04:40:49;;;;;;;9.93;9.03;;;15.20;99.90;;;;;;4942537;28;20488;-84
2022/06/12 04:43:15;;;;;;;11.57;8.93;;;15.30;99.90;;;;;;4940767;28;20472;-85
2022/06/12 04:45:41;;;;;;;9.20;8.50;;;15.40;99.90;;;;;;4952994;28;20482;-84
2022/06/12 04:48:12;;;;;;;8.20;7.50;;;15.50;99.90;;;;;;4934307;28;20875;-84
2022/06/12 04:50:41;;;;;;;8.90;8.17;;;15.50;99.90;;;;;;4935528;28;20454;-84
2022/06/12 04:53:06;;;;;;;9.00;8.30;;;15.70;99.90;;;;;;4937557;28;20452;-85
2022/06/12 04:55:35;;;;;;;9.63;8.80;;;15.80;99.90;;;;;;4942720;28;20449;-85
2022/06/12 04:58:01;;;;;;;9.90;8.33;;;15.90;99.90;;;;;;4940086;28;20187;-84
2022/06/12 05:00:28;;;;;;;9.73;8.83;;;15.90;99.90;;;;;;4943420;28;20820;-84
2022/06/12 05:02:56;;;;;;;9.27;8.53;;;15.90;99.90;;;;;;4939791;28;21406;-85
2022/06/12 05:05:22;;;;;;;9.03;8.33;;;15.90;99.90;;;;;;4951650;28;20575;-85
2022/06/12 05:07:51;;;;;;;10.87;8.97;;;16.00;99.90;;;;;;4939413;28;21011;-84
2022/06/12 05:10:17;;;;;;;9.43;8.30;;;16.00;99.90;;;;;;4936767;28;20198;-85
2022/06/12 05:12:42;;;;;;;8.83;8.03;;;16.00;99.90;;;;;;4940268;28;21680;-85
2022/06/12 05:15:10;;;;;;;9.10;8.30;;;16.10;99.90;;;;;;4931853;28;20190;-85
2022/06/12 05:17:36;;;;;;;8.77;7.50;;;16.20;99.90;;;;;;4931115;28;20214;-85
2022/06/12 05:20:02;;;;;;;9.27;8.40;;;16.20;99.90;;;;;;4954083;28;20461;-85
2022/06/12 05:22:27;;;;;;;8.63;7.93;;;16.40;99.90;;;;;;4938556;28;20186;-86
2022/06/12 05:24:53;;;;;;;8.63;7.93;;;16.50;99.90;;;;;;4937532;28;20810;-84
2022/06/12 05:27:21;;;;;;;9.33;8.60;;;16.60;99.90;;;;;;4957590;28;21051;-85
2022/06/12 05:29:47;;;;;;;9.20;8.27;;;16.70;99.90;;;;;;4940167;28;20736;-85
2022/06/12 05:32:17;;;;;;;9.17;8.43;;;16.80;99.90;;;;;;4942194;28;20450;-85
2022/06/12 05:34:46;;;;;;;8.73;7.90;;;16.80;99.90;;;;;;4949590;28;20469;-85
2022/06/12 05:37:20;;;;;;;9.13;8.37;;;16.80;99.90;;;;;;4941162;28;20557;-85
2022/06/12 05:39:46;;;;;;;8.53;7.77;;;16.90;99.90;;;;;;4934858;28;20449;-85
2022/06/12 05:42:12;;;;;;;9.03;8.03;;;17.00;99.90;;;;;;4940273;28;21147;-84
2022/06/12 05:44:39;;;;;;;8.20;7.50;;;17.00;99.90;;;;;;4956729;28;20221;-84
2022/06/12 05:47:05;;;;;;;8.10;7.40;;;17.00;99.90;;;;;;4930898;28;20257;-84
2022/06/12 05:49:31;;;;;;;8.90;7.80;;;17.10;99.90;;;;;;4947818;28;20465;-85
2022/06/12 05:51:57;;;;;;;9.10;8.20;;;17.20;99.90;;;;;;4950698;28;20674;-84
2022/06/12 05:54:23;;;;;;;8.60;7.87;;;17.20;99.90;;;;;;4943516;28;20179;-86
2022/06/12 05:56:48;;;;;;;7.57;6.87;;;17.30;99.90;;;;;;4932321;28;20469;-84
2022/06/12 05:59:14;;;;;;;8.67;7.87;;;17.30;99.90;;;;;;4941003;28;20217;-84
2022/06/12 06:01:41;;;;;;;8.53;7.83;;;17.40;99.90;;;;;;4935601;28;20229;-85
2022/06/12 06:04:07;;;;;;;8.33;7.70;;;17.50;99.90;;;;;;4938588;28;20201;-85
2022/06/12 06:06:44;;;;;;;7.07;6.47;;;17.60;99.90;;;;;;4937725;28;21066;-86
2022/06/12 06:09:11;;;;;;;7.57;6.97;;;17.70;99.90;;;;;;4934443;28;20528;-85
2022/06/12 06:11:37;;;;;;;7.63;6.80;;;17.60;99.90;;;;;;4937887;28;20457;-85
2022/06/12 06:14:03;;;;;;;7.67;7.07;;;17.70;99.90;;;;;;4939065;28;20476;-85
2022/06/12 06:16:33;;;;;;;8.33;7.43;;;17.90;99.90;;;;;;4937923;28;21003;-85
2022/06/12 06:18:58;;;;;;;7.07;6.47;;;18.00;99.90;;;;;;4938740;28;20197;-85
2022/06/12 06:21:26;;;;;;;7.33;6.83;;;18.10;99.90;;;;;;4941187;28;22101;-86
2022/06/12 06:23:55;;;;;;;8.30;7.47;;;18.10;99.90;;;;;;4940058;28;20448;-86
2022/06/12 06:26:20;;;;;;;7.43;6.83;;;18.20;99.90;;;;;;4938804;28;20692;-86
2022/06/12 06:28:50;;;;;;;7.90;7.10;;;18.20;99.90;;;;;;4946229;28;20458;-85
2022/06/12 06:31:15;;;;;;;7.30;6.67;;;18.20;99.90;;;;;;4935428;28;20186;-86
2022/06/12 06:33:41;;;;;;;7.23;6.53;;;18.40;99.90;;;;;;4936753;28;21276;-86
2022/06/12 06:36:08;;;;;;;7.40;6.77;;;18.60;99.90;;;;;;4936267;28;20223;-85
2022/06/12 06:38:34;;;;;;;7.13;6.47;;;18.70;99.90;;;;;;4938325;28;20650;-86
2022/06/12 06:41:08;;;;;;;6.23;5.83;;;18.80;99.90;;;;;;4938550;28;20821;-86
2022/06/12 06:46:27;;;;;;;7.30;6.70;;;19.00;99.90;;;;;;4937240;28;20811;-86
2022/06/12 06:48:56;;;;;;;6.87;6.37;;;19.20;99.90;;;;;;4950844;28;20481;-86
2022/06/12 06:51:21;;;;;;;7.37;6.67;;;19.20;99.90;;;;;;4937778;28;20453;-87
2022/06/12 06:53:47;;;;;;;7.40;6.87;;;19.30;99.90;;;;;;4936415;28;20448;-86
2022/06/12 06:56:15;;;;;;;7.90;6.50;;;19.40;99.90;;;;;;4939870;28;20696;-86
2022/06/12 06:58:41;;;;;;;6.53;6.00;;;19.60;99.90;;;;;;4930366;28;20229;-86
2022/06/12 07:01:07;;;;;;;7.13;6.53;;;19.70;99.90;;;;;;4934692;28;20441;-86
2022/06/12 07:03:33;;;;;;;7.30;6.70;;;19.70;99.90;;;;;;4933796;28;20448;-87
2022/06/12 07:05:59;;;;;;;6.53;6.03;;;19.90;99.90;;;;;;4939179;28;20756;-85
2022/06/12 07:08:26;;;;;;;7.10;6.40;;;19.90;99.90;;;;;;4928839;28;20529;-85
2022/06/12 07:10:54;;;;;;;6.70;6.20;;;20.00;99.90;;;;;;4928902;28;20466;-86
2022/06/12 07:13:20;;;;;;;6.77;6.23;;;20.10;99.90;;;;;;4945484;28;20844;-85
2022/06/12 07:15:46;;;;;;;7.13;6.43;;;20.40;99.90;;;;;;4938663;28;20452;-86
2022/06/12 07:18:13;;;;;;;7.00;6.50;;;20.50;99.90;;;;;;4923834;28;20198;-86
2022/06/12 07:20:45;;;;;;;6.67;6.07;;;20.50;99.90;;;;;;4933183;28;20450;-85
2022/06/12 07:23:11;;;;;;;7.10;6.50;;;20.70;99.90;;;;;;4932236;28;20438;-87
2022/06/12 07:25:43;;;;;;;6.03;5.63;;;20.80;99.90;;;;;;4952739;28;20893;-86
2022/06/12 07:28:11;;;;;;;5.90;5.40;;;20.90;99.90;;;;;;4959148;28;20529;-86
2022/06/12 07:30:37;;;;;;;6.43;5.93;;;21.00;99.90;;;;;;4964059;28;20449;-86
2022/06/12 07:33:04;;;;;;;6.20;5.60;;;21.00;99.90;;;;;;4944006;28;20437;-86
2022/06/12 07:35:30;;;;;;;6.90;6.30;;;20.80;99.90;;;;;;4935493;28;20448;-87
2022/06/12 07:37:56;;;;;;;6.60;6.10;;;20.80;99.90;;;;;;4948152;28;20457;-88
2022/06/12 07:40:28;;;;;;;6.33;5.83;;;21.00;99.90;;;;;;4927184;28;20473;-84
2022/06/12 07:42:54;;;;;;;7.23;6.40;;;21.30;99.90;;;;;;4932322;28;20532;-85
2022/06/12 07:45:19;;;;;;;6.67;6.17;;;21.30;99.90;;;;;;4937369;28;20476;-85
2022/06/12 07:47:48;;;;;;;6.90;6.40;;;21.10;99.90;;;;;;4936788;28;20182;-86
2022/06/12 07:50:15;;;;;;;6.70;6.20;;;21.30;99.90;;;;;;4930214;28;20256;-85
2022/06/12 07:52:42;;;;;;;6.90;6.40;;;21.50;99.90;;;;;;4933175;28;20445;-87
2022/06/12 07:55:10;;;;;;;6.80;6.30;;;21.60;99.90;;;;;;4948842;28;21310;-86
2022/06/12 07:57:39;;;;;;;6.10;5.60;;;21.80;99.90;;;;;;4933684;28;20815;-86
2022/06/12 08:00:06;;;;;;;7.00;6.40;;;22.10;99.90;;;;;;4947127;28;20445;-84
2022/06/12 08:02:32;;;;;;;6.80;6.27;;;22.20;99.90;;;;;;4936285;28;20464;-84
2022/06/12 08:04:58;;;;;;;5.93;5.53;;;22.40;99.90;;;;;;4940077;28;20594;-85
2022/06/12 08:07:24;;;;;;;6.13;5.63;;;22.50;99.90;;;;;;4932092;28;21652;-87
2022/06/12 08:09:49;;;;;;;7.20;6.60;;;22.70;99.90;;;;;;4931146;28;20209;-85
2022/06/12 08:12:15;;;;;;;6.67;6.07;;;22.70;99.90;;;;;;4930651;28;20640;-87
2022/06/12 08:14:41;;;;;;;7.20;6.57;;;22.50;99.90;;;;;;4922799;28;20179;-86
2022/06/12 08:17:06;;;;;;;6.87;6.27;;;22.60;99.90;;;;;;4926866;28;20609;-86
2022/06/12 08:22:17;;;;;;;7.13;6.43;;;23.10;99.90;;;;;;4935394;28;21379;-87
2022/06/12 08:24:43;;;;;;;9.07;6.10;;;23.30;99.90;;;;;;4946613;28;20496;-86
2022/06/12 08:27:08;;;;;;;6.13;5.63;;;23.30;99.90;;;;;;4924680;28;20461;-87
2022/06/12 08:29:37;;;;;;;6.53;6.00;;;23.50;99.90;;;;;;4930074;28;20194;-86
2022/06/12 08:32:07;;;;;;;6.80;6.30;;;23.60;99.90;;;;;;4924836;28;20902;-86
2022/06/12 08:34:41;;;;;;;6.30;5.90;;;23.60;99.90;;;;;;4926490;28;20434;-86
2022/06/12 08:37:30;;;;;;;6.53;6.03;;;23.50;99.90;;;;;;4923225;28;21469;-82
2022/06/12 08:39:57;;;;;;;6.23;5.73;;;23.30;99.90;;;;;;4925005;28;20590;-85
2022/06/12 08:42:30;;;;;;;7.43;6.77;;;23.40;99.90;;;;;;4925193;28;20802;-84
2022/06/12 08:45:21;;;;;;;6.93;6.33;;;23.40;99.90;;;;;;4943279;28;21458;-83
2022/06/12 08:48:05;;;;;;;8.00;6.07;;;23.40;99.90;;;;;;4939072;28;20942;-84
2022/06/12 08:51:03;;;;;;;6.53;5.93;;;23.60;99.90;;;;;;4929067;28;20488;-84
2022/06/12 08:53:34;;;;;;;6.90;6.40;;;23.50;99.90;;;;;;4931414;28;20528;-84
2022/06/12 08:56:32;;;;;;;6.60;6.07;;;23.80;99.90;;;;;;4937245;28;20449;-83
2022/06/12 08:59:23;;;;;;;6.20;5.60;;;24.20;99.90;;;;;;4950720;28;20513;-83
2022/06/12 09:01:48;;;;;;;6.57;5.77;;;24.50;99.90;;;;;;4936144;28;20923;-84
2022/06/12 09:04:17;;;;;;;6.97;6.27;;;24.80;99.90;;;;;;4942016;28;20442;-84
2022/06/12 09:06:57;;;;;;;6.50;5.90;;;25.10;99.90;;;;;;4938338;28;20238;-83
2022/06/12 09:09:37;;;;;;;5.67;5.27;;;25.20;99.90;;;;;;4938577;28;20457;-83
2022/06/12 09:12:33;;;;;;;6.20;5.70;;;25.20;99.20;;;;;;4944222;28;20445;-84
2022/06/12 09:15:24;;;;;;;5.10;4.70;;;25.20;99.90;;;;;;4948428;28;20442;-84
2022/06/12 09:18:05;;;;;;;6.50;6.00;;;25.10;98.00;;;;;;4940916;28;20450;-83
2022/06/12 09:20:49;;;;;;;5.67;5.20;;;25.30;99.90;;;;;;4943247;28;22487;-84
2022/06/12 09:23:41;;;;;;;5.70;5.20;;;25.20;97.90;;;;;;4933821;28;20480;-83
2022/06/12 09:26:14;;;;;;;5.67;5.17;;;25.20;99.60;;;;;;4949754;28;20505;-88
2022/06/12 09:29:17;;;;;;;5.53;5.03;;;25.50;99.50;;;;;;4954247;28;20445;-88
2022/06/12 09:32:08;;;;;;;5.63;5.13;;;25.80;98.40;;;;;;4948234;28;20453;-88
2022/06/12 09:35:02;;;;;;;5.37;4.90;;;26.00;96.30;;;;;;4959291;28;20442;-87
2022/06/12 09:38:24;;;;;;;5.67;5.03;;;25.60;94.70;;;;;;4949355;28;20450;-88
2022/06/12 09:41:02;;;;;;;5.00;4.63;;;25.70;95.50;;;;;;4945103;28;20790;-88
2022/06/12 09:43:56;;;;;;;4.90;4.60;;;25.80;94.60;;;;;;4949417;28;20445;-88
2022/06/12 09:46:44;;;;;;;5.20;4.67;;;25.80;93.80;;;;;;4933830;28;20481;-88
2022/06/12 09:49:31;;;;;;;5.13;4.80;;;25.50;94.60;;;;;;4944726;28;22105;-88
2022/06/12 09:52:06;;;;;;;5.47;4.97;;;25.70;94.80;;;;;;4950772;28;20511;-88
2022/06/12 09:54:57;;;;;;;5.17;4.67;;;26.20;96.90;;;;;;4929551;28;20441;-87
2022/06/12 09:57:29;;;;;;;5.17;4.77;;;26.60;97.00;;;;;;4933255;28;20484;-87
2022/06/12 10:00:06;;;;;;;4.93;4.63;;;26.80;95.00;;;;;;4937349;28;20449;-89
2022/06/12 10:02:59;;;;;;;5.17;4.67;;;27.00;96.20;;;;;;4952740;28;20496;-91
2022/06/12 10:05:41;;;;;;;5.07;4.60;;;27.00;95.20;;;;;;4940065;28;21077;-91
2022/06/12 10:08:31;;;;;;;4.70;4.40;;;26.90;90.70;;;;;;4952233;28;20583;-89
2022/06/12 10:11:33;;;;;;;4.70;4.40;;;26.40;91.80;;;;;;4934687;28;20452;-89
2022/06/12 10:14:10;;;;;;;4.53;4.20;;;26.50;93.70;;;;;;4922672;28;20871;-90
2022/06/12 10:16:39;;;;;;;5.17;4.80;;;27.00;92.80;;;;;;4952543;28;20476;-88
2022/06/12 10:19:17;;;;;;;5.23;4.77;;;27.00;92.80;;;;;;4941525;28;20483;-89
2022/06/12 10:21:50;;;;;;;4.47;4.17;;;27.10;93.20;;;;;;4938258;28;20485;-89
2022/06/12 10:24:18;;;;;;;4.33;4.03;;;27.20;94.10;;;;;;4935942;28;20559;-89
2022/06/12 10:27:15;;;;;;;4.83;4.50;;;27.40;91.40;;;;;;4936018;28;20846;-89
2022/06/12 10:30:01;;;;;;;4.50;4.20;;;27.60;91.90;;;;;;4923528;28;20504;-88
2022/06/12 10:32:49;;;;;;;5.23;4.67;;;27.60;92.20;;;;;;4934957;28;21149;-90
2022/06/12 10:35:29;;;;;;;4.27;3.97;;;27.70;91.80;;;;;;4937141;28;20444;-88
2022/06/12 10:38:06;;;;;;;5.80;4.70;;;27.80;91.40;;;;;;4956749;28;20457;-88
2022/06/12 10:40:32;;;;;;;5.00;4.60;;;28.00;91.40;;;;;;4958504;28;21054;-88
2022/06/12 10:43:05;;;;;;;4.90;4.50;;;28.10;90.40;;;;;;4943334;28;20537;-88
2022/06/12 10:45:33;;;;;;;4.43;4.03;;;28.50;90.00;;;;;;4960379;28;20284;-88
2022/06/12 10:48:03;;;;;;;4.63;4.33;;;28.40;87.30;;;;;;4946902;28;20508;-88
2022/06/12 10:50:49;;;;;;;4.83;4.43;;;28.10;86.60;;;;;;4939512;28;20870;-88
2022/06/12 10:53:18;;;;;;;6.70;4.27;;;28.30;86.90;;;;;;4958109;28;20494;-88
2022/06/12 10:56:02;;;;;;;4.00;3.70;;;28.50;84.90;;;;;;4934861;28;21294;-88
2022/06/12 10:58:44;;;;;;;3.13;2.93;;;28.50;82.80;;;;;;4954352;28;20897;-88
2022/06/12 11:01:29;;;;;;;4.47;2.90;;;28.40;73.70;;;;;;4953479;28;21038;-87
2022/06/12 11:04:46;;;;;;;3.43;3.23;;;28.20;74.40;;;;;;4953776;28;20450;-89
2022/06/12 11:07:33;;;;;;;3.50;3.30;;;28.50;76.70;;;;;;4945946;28;20499;-88
2022/06/12 11:10:41;;;;;;;3.67;3.47;;;29.00;78.70;;;;;;4939985;28;20560;-88
2022/06/12 11:13:41;;;;;;;3.77;3.43;;;29.00;76.30;;;;;;4969476;28;20464;-88
2022/06/12 11:16:47;;;;;;;3.67;3.37;;;28.70;72.60;;;;;;4963287;28;20445;-88
2022/06/12 11:19:44;;;;;;;4.57;4.27;;;28.10;74.60;;;;;;4956378;28;21559;-88
2022/06/12 11:22:28;;;;;;;3.80;3.50;;;27.90;75.30;;;;;;4956946;28;20452;-88
2022/06/12 11:25:25;;;;;;;3.90;3.60;;;27.80;74.30;;;;;;4967938;28;20539;-88
2022/06/12 11:28:10;;;;;;;3.50;3.30;;;28.30;78.60;;;;;;4947413;28;20453;-88
2022/06/12 11:31:02;;;;;;;4.00;3.43;;;28.80;79.20;;;;;;4950168;28;20746;-88
2022/06/12 11:33:40;;;;;;;3.60;3.40;;;28.70;75.00;;;;;;4938838;28;20449;-88
2022/06/12 11:36:26;;;;;;;3.60;3.30;;;28.40;73.10;;;;;;4943850;28;20524;-90
2022/06/12 11:39:17;;;;;;;4.10;3.77;;;28.30;75.80;;;;;;4963974;28;20449;-88
2022/06/12 11:41:52;;;;;;;3.90;3.60;;;28.90;80.40;;;;;;4936960;28;20453;-87
2022/06/12 11:44:49;;;;;;;3.90;3.60;;;29.20;71.50;;;;;;4938803;28;20576;-88
2022/06/12 11:47:36;;;;;;;4.07;3.87;;;29.20;73.90;;;;;;4951384;28;20445;-88
2022/06/12 11:50:52;;;;;;;3.60;3.30;;;29.50;73.60;;;;;;4938874;28;20437;-88
2022/06/12 11:53:32;;;;;;;3.80;3.50;;;30.10;75.20;;;;;;4947020;28;20446;-88
2022/06/12 11:56:04;;;;;;;3.47;3.17;;;30.30;74.20;;;;;;4933989;28;20461;-88
2022/06/12 11:58:58;;;;;;;3.73;3.43;;;30.40;71.40;;;;;;4936638;28;20481;-88
2022/06/12 12:01:36;;;;;;;3.87;3.60;;;30.30;75.20;;;;;;4937039;28;20441;-88
2022/06/12 12:04:05;;;;;;;4.20;3.17;;;30.70;72.30;;;;;;4952385;28;20453;-88
2022/06/12 12:06:42;;;;;;;3.30;3.13;;;31.00;73.00;;;;;;4937519;28;20530;-88
2022/06/12 12:09:23;;;;;;;4.00;3.70;;;30.90;68.60;;;;;;4942562;28;20441;-88
2022/06/12 12:12:19;;;;;;;3.17;2.87;;;30.60;71.90;;;;;;4940742;28;20901;-88
2022/06/12 12:14:58;;;;;;;3.50;3.30;;;30.70;67.50;;;;;;4941672;28;20484;-88
2022/06/12 12:17:38;;;;;;;3.90;3.60;;;31.00;72.40;;;;;;4953864;28;20441;-88
2022/06/12 12:20:08;;;;;;;3.60;3.30;;;31.10;70.70;;;;;;4936081;28;21727;-88
2022/06/12 12:23:10;;;;;;;3.77;3.40;;;31.20;72.00;;;;;;4935029;28;20440;-88
2022/06/12 12:25:42;;;;;;;3.73;3.50;;;31.00;66.50;;;;;;4941574;28;20474;-88
2022/06/12 12:28:23;;;;;;;4.37;3.97;;;30.00;65.90;;;;;;4953278;28;20484;-88
2022/06/12 12:30:52;;;;;;;4.17;3.83;;;30.40;74.70;;;;;;4955173;28;20449;-88
2022/06/12 12:33:19;;;;;;;3.33;3.10;;;30.60;73.40;;;;;;4956941;28;20475;-88
2022/06/12 12:41:37;;;;;;;4.10;3.90;;;30.90;75.50;;;;;;4947167;28;21709;-89
2022/06/12 12:44:03;;;;;;;3.50;3.20;;;30.90;71.30;;;;;;4940501;28;21027;-88
2022/06/12 12:46:51;;;;;;;4.17;3.80;;;31.60;70.60;;;;;;4939644;28;20576;-88
2022/06/12 12:49:36;;;;;;;3.73;3.43;;;31.60;66.80;;;;;;4949337;28;20445;-88
2022/06/12 12:52:19;;;;;;;3.10;2.93;;;31.10;70.10;;;;;;4936667;28;20445;-89
2022/06/12 12:54:56;;;;;;;3.60;3.40;;;31.40;64.40;;;;;;4942545;28;20485;-88
2022/06/12 12:57:41;;;;;;;3.70;3.50;;;32.10;67.40;;;;;;4944691;28;20444;-88
2022/06/12 13:00:19;;;;;;;3.67;3.30;;;32.20;62.70;;;;;;4942418;28;20520;-88
2022/06/12 13:03:07;;;;;;;3.73;3.43;;;32.20;69.90;;;;;;4942412;28;20441;-88
2022/06/12 13:05:45;;;;;;;3.83;3.53;;;32.00;71.10;;;;;;4941974;28;20484;-88
2022/06/12 13:08:32;;;;;;;3.60;3.40;;;32.50;69.40;;;;;;4939164;28;20433;-89
2022/06/12 13:11:36;;;;;;;6.03;3.83;;;33.00;67.10;;;;;;4961943;28;20540;-88
2022/06/12 13:14:14;;;;;;;3.60;3.40;;;33.20;69.70;;;;;;4942141;28;20455;-88
2022/06/12 13:16:54;;;;;;;4.03;3.80;;;32.80;63.80;;;;;;4959363;28;20626;-88
2022/06/12 13:19:38;;;;;;;3.60;3.40;;;32.50;65.80;;;;;;4952016;28;21659;-88
2022/06/12 13:22:49;;;;;;;3.90;3.60;;;32.80;59.00;;;;;;4956650;28;20497;-88
2022/06/12 13:25:25;;;;;;;3.90;3.60;;;32.10;64.90;;;;;;4952977;28;20485;-88
2022/06/12 13:27:55;;;;;;;5.17;3.70;;;31.70;68.00;;;;;;4942714;28;20832;-88
2022/06/12 13:30:32;;;;;;;4.50;3.50;;;31.30;63.30;;;;;;4940761;28;20454;-88
2022/06/12 13:33:09;;;;;;;3.97;3.73;;;31.00;63.00;;;;;;4940029;28;20437;-89
2022/06/12 13:35:44;;;;;;;4.40;4.10;;;30.80;69.60;;;;;;4933107;28;20819;-88
2022/06/12 13:38:23;;;;;;;4.03;3.73;;;30.90;67.50;;;;;;4955513;28;20438;-88
2022/06/12 13:41:00;;;;;;;4.20;3.83;;;31.10;69.50;;;;;;4939256;28;20517;-88
2022/06/12 13:43:39;;;;;;;4.17;3.90;;;31.50;69.40;;;;;;4942571;28;20963;-88
2022/06/12 13:46:20;;;;;;;3.80;3.60;;;31.20;68.70;;;;;;4941511;28;20492;-88
2022/06/12 13:48:46;;;;;;;4.20;3.90;;;31.30;69.90;;;;;;4939166;28;20588;-88
2022/06/12 13:51:52;;;;;;;4.50;4.10;;;31.30;67.90;;;;;;4937807;28;20449;-88